Time;durP1;ratioP1;P1;durP2;ratioP2;P2;SDS_P1;SDS_P2;PMS_P1;PMS_P2;Temp;Humidity;BMP_temperature;BMP_pressure;BME280_temperature;BME280_humidity;BME280_pressure;Samples;Min_cycle;Max_cycle;Signal;HPM_P1;HPM_P2
2021/11/08 00:00:07;;;;;;;40.63;18.50;;;;;;;;;;6273764;22;20169;-90
2021/11/08 00:03:16;;;;;;;44.87;19.30;;;;;;;;;;6273827;22;20149;-90
2021/11/08 00:06:21;;;;;;;40.63;19.70;;;;;;;;;;6273183;22;20170;-89
2021/11/08 00:09:26;;;;;;;38.97;17.57;;;;;;;;;;6271166;22;20264;-91
2021/11/08 00:12:31;;;;;;;36.70;17.37;;;;;;;;;;6272683;22;20614;-89
2021/11/08 00:15:43;;;;;;;36.27;17.00;;;;;;;;;;6273634;22;20265;-89
2021/11/08 00:19:02;;;;;;;39.60;16.90;;;;;;;;;;6273635;22;20273;-87
2021/11/08 00:22:08;;;;;;;37.17;17.03;;;;;;;;;;6274185;22;20153;-89
2021/11/08 00:25:13;;;;;;;35.47;16.73;;;;;;;;;;6274774;22;20170;-87
2021/11/08 00:28:19;;;;;;;37.00;16.50;;;;;;;;;;6273571;22;20170;-89
2021/11/08 00:31:25;;;;;;;36.53;15.83;;;;;;;;;;6274360;22;20174;-89
2021/11/08 00:34:32;;;;;;;31.83;15.77;;;;;;;;;;6278063;22;20177;-89
2021/11/08 00:52:19;;;;;;;31.00;15.20;;;;;;;;;;6236205;22;20219;-88
2021/11/08 00:55:26;;;;;;;35.67;16.70;;;;;;;;;;6260790;22;20154;-88
2021/11/08 00:58:35;;;;;;;30.07;14.83;;;;;;;;;;6242554;23;20237;-88
2021/11/08 01:01:42;;;;;;;33.17;15.13;;;;;;;;;;6243058;23;20245;-88
2021/11/08 01:04:47;;;;;;;29.43;13.93;;;;;;;;;;6240440;23;20170;-89
2021/11/08 01:07:54;;;;;;;35.97;15.60;;;;;;;;;;6242212;23;20167;-89
2021/11/08 01:11:00;;;;;;;31.17;14.57;;;;;;;;;;6241966;22;20194;-87
2021/11/08 01:14:05;;;;;;;32.47;15.13;;;;;;;;;;6242876;23;20189;-90
2021/11/08 01:17:10;;;;;;;34.80;15.00;;;;;;;;;;6241883;23;20657;-89
2021/11/08 01:20:15;;;;;;;31.30;14.33;;;;;;;;;;6242265;23;20182;-88
2021/11/08 01:23:24;;;;;;;30.60;14.47;;;;;;;;;;6240517;23;20218;-88
2021/11/08 01:26:29;;;;;;;31.50;15.23;;;;;;;;;;6241381;23;20161;-89
2021/11/08 01:29:34;;;;;;;29.97;14.27;;;;;;;;;;6241514;23;20190;-89
2021/11/08 01:32:40;;;;;;;30.60;13.80;;;;;;;;;;6241628;22;20258;-88
2021/11/08 01:35:58;;;;;;;30.07;14.13;;;;;;;;;;6241322;23;20629;-88
2021/11/08 01:39:13;;;;;;;29.00;14.17;;;;;;;;;;6241519;23;20174;-89
2021/11/08 01:42:18;;;;;;;30.77;14.30;;;;;;;;;;6240281;23;20239;-87
2021/11/08 01:45:25;;;;;;;32.03;14.73;;;;;;;;;;6241636;23;20165;-88
2021/11/08 01:48:30;;;;;;;29.77;14.10;;;;;;;;;;6240345;23;20174;-89
2021/11/08 01:51:35;;;;;;;29.87;14.27;;;;;;;;;;6238920;23;20286;-89
2021/11/08 01:54:42;;;;;;;30.37;14.13;;;;;;;;;;6240764;23;20204;-89
2021/11/08 01:57:48;;;;;;;28.93;13.60;;;;;;;;;;6239754;23;20174;-88
2021/11/08 02:00:53;;;;;;;27.93;13.23;;;;;;;;;;6243163;22;20193;-90
2021/11/08 02:03:58;;;;;;;32.80;13.47;;;;;;;;;;6243130;23;20241;-90
2021/11/08 02:07:04;;;;;;;30.87;14.10;;;;;;;;;;6243496;22;20610;-90
2021/11/08 02:10:12;;;;;;;33.60;15.10;;;;;;;;;;6242313;22;20329;-88
2021/11/08 02:13:17;;;;;;;27.30;13.63;;;;;;;;;;6240860;23;20162;-89
2021/11/08 02:16:23;;;;;;;31.73;14.10;;;;;;;;;;6241955;22;20574;-89
2021/11/08 02:19:28;;;;;;;29.90;14.33;;;;;;;;;;6242073;23;20590;-90
2021/11/08 02:22:35;;;;;;;28.20;13.90;;;;;;;;;;6241000;23;20170;-89
2021/11/08 02:25:41;;;;;;;30.77;13.47;;;;;;;;;;6241345;23;20153;-88
2021/11/08 02:28:48;;;;;;;28.63;13.80;;;;;;;;;;6241222;22;20232;-92
2021/11/08 02:31:56;;;;;;;29.97;14.27;;;;;;;;;;6241571;22;20178;-88
2021/11/08 02:35:02;;;;;;;30.20;13.60;;;;;;;;;;6223249;23;20671;-88
2021/11/08 02:38:11;;;;;;;27.80;13.23;;;;;;;;;;6240040;23;20162;-90
2021/11/08 02:41:18;;;;;;;25.43;12.17;;;;;;;;;;6240824;23;20170;-89
2021/11/08 02:44:23;;;;;;;28.07;13.23;;;;;;;;;;6239300;23;20177;-87
2021/11/08 02:47:28;;;;;;;31.00;14.03;;;;;;;;;;6238789;22;20197;-88
2021/11/08 02:50:35;;;;;;;26.90;13.23;;;;;;;;;;6241020;22;20194;-89
2021/11/08 02:53:43;;;;;;;23.63;11.77;;;;;;;;;;6241452;23;20173;-88
2021/11/08 02:56:49;;;;;;;29.97;13.10;;;;;;;;;;6243651;23;20167;-89
2021/11/08 02:59:57;;;;;;;25.60;12.43;;;;;;;;;;6242578;23;20174;-90
2021/11/08 03:03:02;;;;;;;29.50;13.77;;;;;;;;;;6241894;22;20155;-88
2021/11/08 03:06:14;;;;;;;28.07;12.50;;;;;;;;;;6244174;22;20182;-89
2021/11/08 03:09:23;;;;;;;23.40;12.17;;;;;;;;;;6242485;23;20186;-89
2021/11/08 03:12:30;;;;;;;24.97;12.73;;;;;;;;;;6242382;23;20186;-88
2021/11/08 03:19:05;;;;;;;28.97;13.57;;;;;;;;;;6241367;22;20174;-88
2021/11/08 03:22:14;;;;;;;26.57;12.97;;;;;;;;;;6241456;22;20178;-89
2021/11/08 03:25:32;;;;;;;29.53;13.20;;;;;;;;;;6242407;23;20230;-88
2021/11/08 03:28:38;;;;;;;28.10;13.00;;;;;;;;;;6241895;23;20249;-89
2021/11/08 03:31:45;;;;;;;26.70;12.00;;;;;;;;;;6240536;23;20194;-89
2021/11/08 03:34:56;;;;;;;32.00;13.47;;;;;;;;;;6261147;22;20165;-89
2021/11/08 03:38:03;;;;;;;27.13;13.53;;;;;;;;;;6242249;22;20162;-87
2021/11/08 03:41:10;;;;;;;29.47;13.73;;;;;;;;;;6243664;23;20238;-90
2021/11/08 03:44:16;;;;;;;30.40;13.67;;;;;;;;;;6247584;23;20170;-90
2021/11/08 03:47:21;;;;;;;30.70;13.43;;;;;;;;;;6244642;23;20194;-88
2021/11/08 03:50:27;;;;;;;28.77;12.97;;;;;;;;;;6244266;22;20246;-89
2021/11/08 03:53:32;;;;;;;25.40;12.53;;;;;;;;;;6246483;22;20155;-89
2021/11/08 03:56:38;;;;;;;28.57;13.40;;;;;;;;;;6245436;23;20614;-90
2021/11/08 03:59:50;;;;;;;30.33;13.70;;;;;;;;;;6245292;23;20154;-89
2021/11/08 04:02:56;;;;;;;29.70;13.70;;;;;;;;;;6243172;23;20454;-89
2021/11/08 04:06:01;;;;;;;30.97;13.50;;;;;;;;;;6243071;22;20170;-90
2021/11/08 04:09:08;;;;;;;30.63;13.60;;;;;;;;;;6244738;23;20170;-90
2021/11/08 04:12:19;;;;;;;29.87;13.77;;;;;;;;;;6245917;23;20221;-90
2021/11/08 04:15:31;;;;;;;33.00;15.07;;;;;;;;;;6244167;23;20167;-90
2021/11/08 04:18:36;;;;;;;30.13;14.00;;;;;;;;;;6243991;22;20174;-89
2021/11/08 04:21:42;;;;;;;28.37;12.80;;;;;;;;;;6243864;23;20236;-88
2021/11/08 04:24:50;;;;;;;30.47;13.73;;;;;;;;;;6244750;22;20181;-87
2021/11/08 04:27:57;;;;;;;27.33;13.30;;;;;;;;;;6243881;23;20246;-89
2021/11/08 04:31:02;;;;;;;28.57;13.20;;;;;;;;;;6242866;23;20245;-90
2021/11/08 04:34:18;;;;;;;31.40;13.93;;;;;;;;;;6241138;23;20158;-87
2021/11/08 04:37:46;;;;;;;24.43;12.37;;;;;;;;;;6243154;22;20169;-88
2021/11/08 04:41:03;;;;;;;27.50;13.10;;;;;;;;;;6244320;23;20158;-88
2021/11/08 04:44:31;;;;;;;28.43;13.60;;;;;;;;;;6244424;22;20167;-89
2021/11/08 04:48:08;;;;;;;29.23;13.27;;;;;;;;;;6243155;22;20182;-88
2021/11/08 04:51:18;;;;;;;28.33;12.97;;;;;;;;;;6242915;23;20210;-89
2021/11/08 04:54:32;;;;;;;28.77;13.43;;;;;;;;;;6242262;22;20282;-90
2021/11/08 04:58:01;;;;;;;28.13;13.10;;;;;;;;;;6242297;22;20166;-89
2021/11/08 05:22:14;;;;;;;26.33;12.20;;;;;;;;;;6243911;22;20182;-89
2021/11/08 05:27:48;;;;;;;28.27;12.93;;;;;;;;;;6242870;23;20238;-89
2021/11/08 05:32:20;;;;;;;30.27;13.47;;;;;;;;;;6244152;22;20229;-88
2021/11/08 05:35:25;;;;;;;31.10;13.93;;;;;;;;;;6244960;23;20174;-89
2021/11/08 05:38:32;;;;;;;34.23;14.07;;;;;;;;;;6243325;23;20210;-88
2021/11/08 05:41:38;;;;;;;32.10;13.97;;;;;;;;;;6245008;22;20214;-87
2021/11/08 05:44:44;;;;;;;29.30;13.57;;;;;;;;;;6244636;22;20590;-89
2021/11/08 05:47:50;;;;;;;30.23;14.03;;;;;;;;;;6244713;23;20163;-88
2021/11/08 05:50:55;;;;;;;29.70;13.53;;;;;;;;;;6246673;23;20217;-88
2021/11/08 05:54:02;;;;;;;28.03;13.67;;;;;;;;;;6244639;23;20171;-88
2021/11/08 05:57:40;;;;;;;28.63;13.63;;;;;;;;;;6244989;22;20157;-89
2021/11/08 06:51:43;;;;;;;30.60;11.93;;;;;;;;;;6212623;23;20209;-89
2021/11/08 06:54:49;;;;;;;26.40;11.43;;;;;;;;;;6243492;23;20202;-89
2021/11/08 06:58:01;;;;;;;24.03;11.73;;;;;;;;;;6240586;22;20158;-90
2021/11/08 07:01:08;;;;;;;27.97;11.80;;;;;;;;;;6244135;22;20178;-89
2021/11/08 07:04:18;;;;;;;28.17;11.87;;;;;;;;;;6244266;22;20256;-88
2021/11/08 07:07:23;;;;;;;25.50;12.23;;;;;;;;;;6243047;23;20167;-88
2021/11/08 07:10:28;;;;;;;26.13;11.90;;;;;;;;;;6242765;23;20182;-89
2021/11/08 07:13:33;;;;;;;24.77;12.53;;;;;;;;;;6244990;22;20159;-88
2021/11/08 07:16:44;;;;;;;29.67;12.47;;;;;;;;;;6228626;22;20231;-87
2021/11/08 07:19:49;;;;;;;31.00;12.97;;;;;;;;;;6265309;22;20197;-90
2021/11/08 07:22:54;;;;;;;30.97;13.53;;;;;;;;;;6245126;23;20610;-89
2021/11/08 07:26:00;;;;;;;32.07;14.57;;;;;;;;;;6244385;23;20267;-88
2021/11/08 07:29:05;;;;;;;30.77;13.87;;;;;;;;;;6244754;23;20158;-88
2021/11/08 07:32:12;;;;;;;25.07;11.97;;;;;;;;;;6242956;23;20189;-89
2021/11/08 07:35:18;;;;;;;26.17;12.00;;;;;;;;;;6244881;23;20202;-89
2021/11/08 07:38:23;;;;;;;27.80;12.53;;;;;;;;;;6245439;23;20262;-90
2021/11/08 07:41:28;;;;;;;26.03;12.77;;;;;;;;;;6244065;23;20198;-88
2021/11/08 13:39:31;;;;;;;7.28;1.70;;;;;;;;;;6256354;22;20211;-92
2021/11/08 13:42:36;;;;;;;10.80;1.77;;;;;;;;;;6244469;23;20186;-89
2021/11/08 13:45:52;;;;;;;9.73;1.88;;;;;;;;;;6246885;23;20174;-87
2021/11/08 13:48:59;;;;;;;8.75;1.77;;;;;;;;;;6247033;23;20186;-90
2021/11/08 13:52:08;;;;;;;10.98;1.45;;;;;;;;;;6245168;23;20500;-88
2021/11/08 13:55:20;;;;;;;12.82;1.73;;;;;;;;;;6244848;23;20217;-88
2021/11/08 13:58:26;;;;;;;10.50;1.80;;;;;;;;;;6246311;23;20173;-91
2021/11/08 14:01:32;;;;;;;6.78;1.75;;;;;;;;;;6245567;23;20178;-91
2021/11/08 14:04:40;;;;;;;7.97;1.77;;;;;;;;;;6244207;23;20174;-89
2021/11/08 14:07:46;;;;;;;5.82;1.63;;;;;;;;;;6243468;23;20178;-89
2021/11/08 14:10:53;;;;;;;5.65;1.63;;;;;;;;;;6244330;23;20167;-91
2021/11/08 14:14:07;;;;;;;7.90;1.42;;;;;;;;;;6244695;23;20167;-90
2021/11/08 14:17:15;;;;;;;5.22;1.60;;;;;;;;;;6244286;23;20167;-89
2021/11/08 14:20:21;;;;;;;8.07;1.63;;;;;;;;;;6246218;23;20182;-88
2021/11/08 14:23:27;;;;;;;9.43;2.10;;;;;;;;;;6243435;22;20183;-90
2021/11/08 14:26:40;;;;;;;9.13;1.67;;;;;;;;;;6244788;23;20241;-88
2021/11/08 14:29:46;;;;;;;9.60;1.50;;;;;;;;;;6245123;23;20169;-90
2021/11/08 14:32:53;;;;;;;8.48;1.80;;;;;;;;;;6244423;23;20240;-90
2021/11/08 14:35:58;;;;;;;9.98;1.80;;;;;;;;;;6243217;23;20224;-89
2021/11/08 14:39:08;;;;;;;8.35;1.70;;;;;;;;;;6243263;23;20198;-90
2021/11/08 14:42:16;;;;;;;6.85;2.03;;;;;;;;;;6246222;23;20598;-90
2021/11/08 14:45:23;;;;;;;8.80;1.60;;;;;;;;;;6244280;22;20189;-87
2021/11/08 14:48:31;;;;;;;4.82;1.98;;;;;;;;;;6243577;23;20190;-89
2021/11/08 14:51:36;;;;;;;7.28;2.42;;;;;;;;;;6243700;23;20217;-89
2021/11/08 14:54:57;;;;;;;8.38;1.92;;;;;;;;;;6226259;23;20166;-89
2021/11/08 14:58:19;;;;;;;12.27;2.70;;;;;;;;;;6245343;23;20212;-90
2021/11/08 15:01:24;;;;;;;11.02;2.55;;;;;;;;;;6243693;23;20169;-90
2021/11/08 15:04:35;;;;;;;10.57;2.25;;;;;;;;;;6230321;22;20150;-89
2021/11/08 15:07:46;;;;;;;13.02;2.72;;;;;;;;;;6244073;23;20158;-88
2021/11/08 15:10:58;;;;;;;10.30;2.93;;;;;;;;;;6263542;23;20182;-87
2021/11/08 15:14:10;;;;;;;10.67;3.40;;;;;;;;;;6246410;23;20171;-90
2021/11/08 15:17:28;;;;;;;18.73;5.70;;;;;;;;;;6246426;23;20189;-90
2021/11/08 15:20:37;;;;;;;19.97;6.97;;;;;;;;;;6246967;23;20171;-89
2021/11/08 15:23:43;;;;;;;33.30;9.73;;;;;;;;;;6246964;23;20166;-90
2021/11/08 15:26:55;;;;;;;22.33;6.90;;;;;;;;;;6230708;23;20625;-90
2021/11/08 15:30:14;;;;;;;17.97;5.97;;;;;;;;;;6248656;23;20633;-89
2021/11/08 23:16:32;;;;;;;22.90;8.13;;;;;;;;;;6155482;22;1414339;-89
2021/11/08 23:19:41;;;;;;;27.33;8.20;;;;;;;;;;6202174;23;20168;-91
2021/11/08 23:22:51;;;;;;;23.50;8.20;;;;;;;;;;6203880;23;20148;-89
2021/11/08 23:25:58;;;;;;;23.77;7.67;;;;;;;;;;6202275;23;20659;-89
2021/11/08 23:29:04;;;;;;;22.23;8.50;;;;;;;;;;6203313;23;20488;-89
2021/11/08 23:32:12;;;;;;;17.80;7.93;;;;;;;;;;6201164;23;20168;-89
2021/11/08 23:35:18;;;;;;;23.40;8.80;;;;;;;;;;6203488;23;20203;-89
2021/11/08 23:38:24;;;;;;;36.50;8.30;;;;;;;;;;6202923;23;20227;-92
2021/11/08 23:41:30;;;;;;;40.17;8.60;;;;;;;;;;6203403;23;20167;-90
2021/11/08 23:44:35;;;;;;;38.20;8.30;;;;;;;;;;6201373;23;20493;-91
2021/11/08 23:47:42;;;;;;;48.00;8.70;;;;;;;;;;6202919;23;20163;-90
2021/11/08 23:50:48;;;;;;;31.60;8.80;;;;;;;;;;6201865;23;20180;-90
2021/11/08 23:53:53;;;;;;;27.33;8.73;;;;;;;;;;6205647;23;20215;-92
2021/11/08 23:56:59;;;;;;;47.10;9.40;;;;;;;;;;6205545;23;20167;-91
